Time;durP1;ratioP1;P1;durP2;ratioP2;P2;SDS_P1;SDS_P2;PMS_P1;PMS_P2;Temp;Humidity;BMP_temperature;BMP_pressure;BME280_temperature;BME280_humidity;BME280_pressure;Samples;Min_cycle;Max_cycle;Signal;HPM_P1;HPM_P2
2022/03/23 00:01:59;;;;;;;;;;;9.40;99.90;;;;;;5114587;28;20002;-87
2022/03/23 00:04:26;;;;;;;;;;;10.60;99.90;;;;;;5114536;28;19969;-87
2022/03/23 00:06:53;;;;;;;;;;;10.80;99.90;;;;;;5114805;28;19946;-87
2022/03/23 00:09:20;;;;;;;;;;;13.10;99.90;;;;;;5114856;28;19935;-88
2022/03/23 00:11:48;;;;;;;;;;;11.00;99.90;;;;;;5114872;28;19924;-88
2022/03/23 00:14:15;;;;;;;;;;;10.30;99.90;;;;;;5114519;28;20016;-88
2022/03/23 00:16:42;;;;;;;;;;;11.00;99.90;;;;;;5118096;28;19927;-88
2022/03/23 00:19:11;;;;;;;;;;;9.10;99.90;;;;;;5134707;28;19976;-88
2022/03/23 00:21:38;;;;;;;;;;;10.20;99.90;;;;;;5134031;28;19945;-87
2022/03/23 00:24:05;;;;;;;;;;;10.40;99.90;;;;;;5135824;28;19967;-88
2022/03/23 00:26:35;;;;;;;;;;;10.70;99.90;;;;;;5122270;28;19928;-88
2022/03/23 00:29:04;;;;;;;;;;;10.40;99.90;;;;;;5115233;28;19934;-89
2022/03/23 00:31:31;;;;;;;;;;;9.90;99.90;;;;;;5114369;28;19924;-89
2022/03/23 00:33:58;;;;;;;;;;;10.00;99.90;;;;;;5114754;28;19924;-88
2022/03/23 00:36:24;;;;;;;;;;;10.00;99.90;;;;;;5114308;28;19934;-89
2022/03/23 00:38:53;;;;;;;;;;;10.20;99.90;;;;;;5114680;28;20370;-89
2022/03/23 00:41:20;;;;;;;;;;;9.90;99.90;;;;;;5114286;28;19928;-87
2022/03/23 00:43:47;;;;;;;;;;;7.80;99.90;;;;;;5116053;28;19924;-88
2022/03/23 00:46:16;;;;;;;;;;;10.00;99.90;;;;;;5118525;28;19928;-87
2022/03/23 00:48:43;;;;;;;;;;;10.00;99.90;;;;;;5118336;28;19950;-87
2022/03/23 00:51:10;;;;;;;;;;;10.30;99.90;;;;;;5118319;28;20389;-87
2022/03/23 00:53:37;;;;;;;;;;;9.70;99.90;;;;;;5117872;28;19928;-87
2022/03/23 00:56:06;;;;;;;;;;;9.70;99.90;;;;;;5118267;28;20120;-87
2022/03/23 00:58:32;;;;;;;;;;;9.60;99.90;;;;;;5118150;28;19959;-88
2022/03/23 01:01:00;;;;;;;;;;;9.60;99.90;;;;;;5117808;28;19934;-88
2022/03/23 01:03:28;;;;;;;;;;;10.00;99.90;;;;;;5118311;28;19930;-89
2022/03/23 01:05:55;;;;;;;;;;;8.80;99.90;;;;;;5118023;28;20381;-89
2022/03/23 01:08:25;;;;;;;;;;;9.20;99.90;;;;;;5117875;28;20394;-88
2022/03/23 01:10:52;;;;;;;;;;;9.30;99.90;;;;;;5118135;28;19969;-88
2022/03/23 01:13:19;;;;;;;;;;;9.80;99.90;;;;;;5117960;28;19923;-87
2022/03/23 01:15:48;;;;;;;;;;;8.10;99.90;;;;;;5117725;28;19924;-87
2022/03/23 01:18:15;;;;;;;;;;;9.40;99.90;;;;;;5118319;28;19934;-88
2022/03/23 01:20:43;;;;;;;;;;;9.70;99.90;;;;;;5118366;28;19977;-88
2022/03/23 01:23:10;;;;;;;;;;;9.40;99.90;;;;;;5117651;28;19923;-88
2022/03/23 01:25:37;;;;;;;;;;;9.70;99.90;;;;;;5117780;28;19928;-88
2022/03/23 01:28:05;;;;;;;;;;;9.20;99.90;;;;;;5117932;28;19923;-88
2022/03/23 01:30:31;;;;;;;;;;;9.70;99.90;;;;;;5117484;28;20386;-88
2022/03/23 01:32:59;;;;;;;;;;;9.10;99.90;;;;;;5117314;28;20036;-87
2022/03/23 01:35:26;;;;;;;;;;;9.00;99.90;;;;;;5117487;28;19930;-87
2022/03/23 01:37:55;;;;;;;;;;;8.90;99.90;;;;;;5117431;28;19934;-88
2022/03/23 01:40:22;;;;;;;;;;;9.20;99.90;;;;;;5117479;28;19931;-88
2022/03/23 01:42:49;;;;;;;;;;;9.20;99.90;;;;;;5117375;28;19927;-88
2022/03/23 01:45:16;;;;;;;;;;;9.00;99.90;;;;;;5117509;28;20508;-88
2022/03/23 01:47:43;;;;;;;;;;;8.40;99.90;;;;;;5117202;28;20325;-87
2022/03/23 01:50:10;;;;;;;;;;;9.10;99.90;;;;;;5117543;28;19927;-88
2022/03/23 01:52:40;;;;;;;;;;;8.40;99.90;;;;;;5116943;28;20400;-86
2022/03/23 01:55:17;;;;;;;;;;;8.80;99.90;;;;;;5117478;28;20384;-87
2022/03/23 01:57:45;;;;;;;;;;;9.40;99.90;;;;;;5096832;28;19924;-87
2022/03/23 02:00:12;;;;;;;;;;;8.00;99.90;;;;;;5096633;28;19988;-88
2022/03/23 02:02:40;;;;;;;;;;;8.80;99.90;;;;;;5096258;28;19978;-88
2022/03/23 02:05:07;;;;;;;;;;;8.70;99.90;;;;;;5096606;28;20309;-87
2022/03/23 02:07:34;;;;;;;;;;;8.60;99.90;;;;;;5114431;28;19933;-87
2022/03/23 02:10:01;;;;;;;;;;;8.70;99.90;;;;;;5116109;28;20014;-87
2022/03/23 02:12:30;;;;;;;;;;;8.80;99.90;;;;;;5109677;28;19924;-88
2022/03/23 02:14:57;;;;;;;;;;;8.50;99.90;;;;;;5116153;28;19955;-87
2022/03/23 02:17:24;;;;;;;;;;;8.50;99.90;;;;;;5116457;28;19931;-87
2022/03/23 02:19:51;;;;;;;;;;;8.80;99.90;;;;;;5116509;28;19927;-87
2022/03/23 02:22:19;;;;;;;;;;;8.30;99.90;;;;;;5119120;28;19969;-88
2022/03/23 02:24:46;;;;;;;;;;;8.80;99.90;;;;;;5136442;28;20119;-88
2022/03/23 02:27:13;;;;;;;;;;;9.60;99.90;;;;;;5136828;28;20018;-87
2022/03/23 02:29:40;;;;;;;;;;;8.10;99.90;;;;;;5139324;28;19930;-86
2022/03/23 02:32:07;;;;;;;;;;;8.40;99.90;;;;;;5127056;28;19967;-88
2022/03/23 02:34:36;;;;;;;;;;;8.30;99.90;;;;;;5117940;28;19924;-87
2022/03/23 02:37:03;;;;;;;;;;;8.50;99.90;;;;;;5116752;28;20030;-88
2022/03/23 02:39:31;;;;;;;;;;;8.20;99.90;;;;;;5116367;28;20018;-88
2022/03/23 02:41:58;;;;;;;;;;;8.30;99.90;;;;;;5116037;28;19977;-87
2022/03/23 02:44:26;;;;;;;;;;;8.40;99.90;;;;;;5116213;28;19927;-88
2022/03/23 02:46:53;;;;;;;;;;;7.00;99.90;;;;;;5115426;28;19928;-88
2022/03/23 02:49:20;;;;;;;;;;;8.30;99.90;;;;;;5115788;28;19924;-88
2022/03/23 02:51:47;;;;;;;;;;;10.10;99.90;;;;;;5116122;28;19934;-87
2022/03/23 03:02:40;;;;;;;;;;;8.00;99.90;;;;;;5115400;28;20304;-88
2022/03/23 03:05:07;;;;;;;;;;;7.80;99.90;;;;;;5115722;28;20296;-88
2022/03/23 03:10:15;;;;;;;;;;;7.90;99.90;;;;;;5095295;28;19928;-88
2022/03/23 03:12:44;;;;;;;;;;;8.50;99.90;;;;;;5095153;28;20294;-88
2022/03/23 03:15:11;;;;;;;;;;;8.40;99.90;;;;;;5094587;28;19924;-88
2022/03/23 03:17:38;;;;;;;;;;;7.90;99.90;;;;;;5094633;28;20015;-88
2022/03/23 03:20:06;;;;;;;;;;;8.00;99.90;;;;;;5113964;28;20304;-89
2022/03/23 03:22:34;;;;;;;;;;;8.00;99.90;;;;;;5115103;28;19927;-87
2022/03/23 03:25:01;;;;;;;;;;;7.90;99.90;;;;;;5115164;28;19924;-88
2022/03/23 03:27:31;;;;;;;;;;;8.10;99.90;;;;;;5114546;28;20291;-89
2022/03/23 03:29:59;;;;;;;;;;;7.90;99.90;;;;;;5114464;28;20018;-87
2022/03/23 03:32:26;;;;;;;;;;;6.50;99.90;;;;;;5098968;28;20377;-88
2022/03/23 03:34:53;;;;;;;;;;;8.60;99.90;;;;;;5114826;28;20285;-88
2022/03/23 03:37:19;;;;;;;;;;;7.90;99.90;;;;;;5114712;28;19931;-88
2022/03/23 03:39:46;;;;;;;;;;;8.10;99.90;;;;;;5114597;28;20026;-88
2022/03/23 03:42:13;;;;;;;;;;;7.30;99.90;;;;;;5114308;27;20311;-88
2022/03/23 03:44:40;;;;;;;;;;;7.70;99.90;;;;;;5114799;28;19923;-88
2022/03/23 03:47:10;;;;;;;;;;;8.20;99.90;;;;;;5114602;28;19931;-87
2022/03/23 03:49:39;;;;;;;;;;;7.80;99.90;;;;;;5114569;28;19947;-89
2022/03/23 03:52:06;;;;;;;;;;;7.90;99.90;;;;;;5113757;28;19931;-88
2022/03/23 03:54:33;;;;;;;;;;;7.50;99.90;;;;;;5114612;28;19927;-88
2022/03/23 03:57:00;;;;;;;;;;;7.70;99.90;;;;;;5114114;28;19981;-88
2022/03/23 03:59:28;;;;;;;;;;;7.50;99.90;;;;;;5114610;28;19930;-88
2022/03/23 04:01:55;;;;;;;;;;;7.50;99.90;;;;;;5113907;28;19928;-89
2022/03/23 04:04:23;;;;;;;;;;;6.70;99.90;;;;;;5114043;28;19923;-88
2022/03/23 04:06:50;;;;;;;;;;;5.60;99.90;;;;;;5113892;28;19969;-88
2022/03/23 04:09:17;;;;;;;;;;;7.50;99.90;;;;;;5113904;28;19923;-88
2022/03/23 04:11:44;;;;;;;;;;;7.90;99.90;;;;;;5113580;28;20369;-88
2022/03/23 04:14:11;;;;;;;;;;;7.30;99.90;;;;;;5113878;28;19931;-88
2022/03/23 04:16:39;;;;;;;;;;;7.40;99.90;;;;;;5114078;28;20015;-88
2022/03/23 04:19:07;;;;;;;;;;;7.30;99.90;;;;;;5113449;28;19962;-88
2022/03/23 04:21:36;;;;;;;;;;;8.20;99.90;;;;;;5113979;28;19923;-88
2022/03/23 04:24:03;;;;;;;;;;;7.60;99.90;;;;;;5114334;28;19930;-88
2022/03/23 04:26:29;;;;;;;;;;;8.10;99.90;;;;;;5113978;28;19931;-88
2022/03/23 04:28:56;;;;;;;;;;;7.80;99.90;;;;;;5114615;28;19924;-88
2022/03/23 04:31:23;;;;;;;;;;;8.30;99.90;;;;;;5130733;28;19939;-88
2022/03/23 04:33:50;;;;;;;;;;;8.20;99.90;;;;;;5132517;28;19924;-87
2022/03/23 04:36:17;;;;;;;;;;;8.40;99.90;;;;;;5135361;28;19924;-88
2022/03/23 04:38:45;;;;;;;;;;;8.60;99.90;;;;;;5129241;28;20435;-88
2022/03/23 04:41:12;;;;;;;;;;;7.90;99.90;;;;;;5116308;28;19925;-89
2022/03/23 04:43:39;;;;;;;;;;;7.60;99.90;;;;;;5114885;28;19924;-89
2022/03/23 04:46:06;;;;;;;;;;;7.90;99.90;;;;;;5114330;28;19924;-88
2022/03/23 04:48:33;;;;;;;;;;;8.80;99.90;;;;;;5114568;28;19946;-89
2022/03/23 04:51:00;;;;;;;;;;;7.80;99.90;;;;;;5114101;28;20305;-89
2022/03/23 04:53:27;;;;;;;;;;;8.00;99.90;;;;;;5114410;28;20420;-89
2022/03/23 04:55:55;;;;;;;;;;;12.60;99.90;;;;;;5114257;28;20010;-88
2022/03/23 04:58:24;;;;;;;;;;;7.70;99.90;;;;;;5114378;28;19932;-89
2022/03/23 05:00:51;;;;;;;;;;;8.10;99.90;;;;;;5113976;28;19947;-89
2022/03/23 05:03:18;;;;;;;;;;;8.20;99.90;;;;;;5114068;28;19934;-88
2022/03/23 05:05:45;;;;;;;;;;;7.80;99.90;;;;;;5113570;28;20014;-89
2022/03/23 05:08:11;;;;;;;;;;;8.50;99.90;;;;;;5113878;28;19924;-89
2022/03/23 05:10:38;;;;;;;;;;;7.40;99.90;;;;;;5114034;28;19924;-88
2022/03/23 05:13:06;;;;;;;;;;;7.60;99.90;;;;;;5113744;28;19924;-89
2022/03/23 05:15:33;;;;;;;;;;;7.90;99.90;;;;;;5114124;28;19923;-88
2022/03/23 05:18:00;;;;;;;;;;;7.20;99.90;;;;;;5113936;28;19931;-88
2022/03/23 05:20:27;;;;;;;;;;;8.00;99.90;;;;;;5113823;28;19924;-88
2022/03/23 05:22:57;;;;;;;;;;;7.70;99.90;;;;;;5113987;28;19928;-88
2022/03/23 05:25:24;;;;;;;;;;;8.10;99.90;;;;;;5114202;28;19928;-88
2022/03/23 05:27:51;;;;;;;;;;;7.90;99.90;;;;;;5113855;28;20366;-88
2022/03/23 05:30:19;;;;;;;;;;;7.70;99.90;;;;;;5116425;28;19935;-88
2022/03/23 05:32:46;;;;;;;;;;;7.30;99.90;;;;;;5117452;28;19930;-88
2022/03/23 05:35:13;;;;;;;;;;;7.90;99.90;;;;;;5118027;28;19973;-89
2022/03/23 05:37:41;;;;;;;;;;;7.40;99.90;;;;;;5117929;28;19978;-88
2022/03/23 05:40:08;;;;;;;;;;;7.40;99.90;;;;;;5117287;28;20667;-89
2022/03/23 05:42:35;;;;;;;;;;;7.60;99.90;;;;;;5117776;28;19924;-88
2022/03/23 05:45:02;;;;;;;;;;;4.80;99.90;;;;;;5117643;28;19923;-88
2022/03/23 05:47:30;;;;;;;;;;;6.50;99.90;;;;;;5116844;28;19924;-88
2022/03/23 05:49:57;;;;;;;;;;;7.20;99.90;;;;;;5117120;28;19928;-88
2022/03/23 05:52:24;;;;;;;;;;;8.60;99.90;;;;;;5117430;28;19928;-88
2022/03/23 05:54:51;;;;;;;;;;;7.00;99.90;;;;;;5117348;28;19930;-88
2022/03/23 05:57:18;;;;;;;;;;;7.80;99.90;;;;;;5117224;28;20398;-88
2022/03/23 05:59:44;;;;;;;;;;;7.50;99.90;;;;;;5117110;28;19927;-88
2022/03/23 06:02:11;;;;;;;;;;;7.00;99.90;;;;;;5116786;28;19931;-87
2022/03/23 06:04:39;;;;;;;;;;;7.40;99.90;;;;;;5117470;28;19931;-88
2022/03/23 06:07:06;;;;;;;;;;;7.10;99.90;;;;;;5116930;28;19985;-88
2022/03/23 06:09:33;;;;;;;;;;;7.80;99.90;;;;;;5116547;28;19976;-88
2022/03/23 06:12:01;;;;;;;;;;;7.10;99.90;;;;;;5116701;28;20404;-88
2022/03/23 06:14:28;;;;;;;;;;;7.00;99.90;;;;;;5117131;28;20443;-88
2022/03/23 06:16:55;;;;;;;;;;;6.40;99.90;;;;;;5116777;28;19938;-89
2022/03/23 06:19:22;;;;;;;;;;;7.30;99.90;;;;;;5116867;28;19924;-88
2022/03/23 06:21:50;;;;;;;;;;;7.00;99.90;;;;;;5116459;28;19934;-88
2022/03/23 06:24:17;;;;;;;;;;;6.80;99.90;;;;;;5116619;28;19963;-89
2022/03/23 06:26:44;;;;;;;;;;;7.00;99.90;;;;;;5116709;28;19928;-89
2022/03/23 06:29:11;;;;;;;;;;;7.00;99.90;;;;;;5115627;28;19953;-89
2022/03/23 06:31:37;;;;;;;;;;;7.50;99.90;;;;;;5115859;28;20401;-88
2022/03/23 06:34:05;;;;;;;;;;;7.20;99.90;;;;;;5116260;28;19935;-89
2022/03/23 06:36:31;;;;;;;;;;;7.20;99.90;;;;;;5117152;28;19963;-89
2022/03/23 06:39:00;;;;;;;;;;;7.20;99.90;;;;;;5129172;28;19931;-88
2022/03/23 06:41:27;;;;;;;;;;;7.10;99.90;;;;;;5134900;28;19924;-88
2022/03/23 06:43:53;;;;;;;;;;;7.10;99.90;;;;;;5136026;28;19951;-88
2022/03/23 06:46:20;;;;;;;;;;;8.70;99.90;;;;;;5135364;28;19969;-88
2022/03/23 06:48:47;;;;;;;;;;;7.40;99.90;;;;;;5118563;28;19930;-87
2022/03/23 06:51:14;;;;;;;;;;;7.80;99.90;;;;;;5116825;28;19934;-87
2022/03/23 06:53:41;;;;;;;;;;;7.50;99.90;;;;;;5116216;28;20323;-88
2022/03/23 06:56:10;;;;;;;;;;;4.30;99.90;;;;;;5115947;28;19927;-89
2022/03/23 06:58:46;;;;;;;;;;;7.20;99.90;;;;;;5116209;28;20475;-89
2022/03/23 07:01:13;;;;;;;;;;;7.20;99.90;;;;;;5115967;28;19927;-89
2022/03/23 07:03:39;;;;;;;;;;;4.60;99.90;;;;;;5116265;28;19923;-88
2022/03/23 07:06:06;;;;;;;;;;;7.20;99.90;;;;;;5115399;28;19923;-89
2022/03/23 07:11:19;;;;;;;;;;;7.50;99.90;;;;;;5115849;28;20416;-89
2022/03/23 07:13:45;;;;;;;;;;;7.60;99.90;;;;;;5115920;28;19923;-89
2022/03/23 07:16:12;;;;;;;;;;;8.10;99.90;;;;;;5115692;28;19969;-88
2022/03/23 07:18:39;;;;;;;;;;;8.20;99.90;;;;;;5115304;28;19924;-88
2022/03/23 07:21:06;;;;;;;;;;;7.20;99.90;;;;;;5115529;28;19930;-87
2022/03/23 07:23:34;;;;;;;;;;;8.20;99.90;;;;;;5116962;28;20385;-88
2022/03/23 07:26:03;;;;;;;;;;;8.60;99.90;;;;;;5116211;28;20006;-88
2022/03/23 07:28:35;;;;;;;;;;;8.70;99.90;;;;;;5116012;28;19924;-88
2022/03/23 07:31:01;;;;;;;;;;;8.60;99.90;;;;;;5115377;28;20304;-88
2022/03/23 07:33:29;;;;;;;;;;;8.70;99.90;;;;;;5115351;28;19938;-88
2022/03/23 07:36:02;;;;;;;;;;;9.00;99.90;;;;;;5116324;28;19927;-88
2022/03/23 07:38:29;;;;;;;;;;;9.00;99.90;;;;;;5116725;28;20557;-87
2022/03/23 07:40:57;;;;;;;;;;;6.40;99.90;;;;;;5116263;28;20297;-87
2022/03/23 07:43:24;;;;;;;;;;;8.90;99.90;;;;;;5115446;28;20336;-89
2022/03/23 07:45:58;;;;;;;;;;;9.10;99.90;;;;;;5115160;28;19924;-88
2022/03/23 07:48:25;;;;;;;;;;;9.90;99.90;;;;;;5115359;28;19928;-89
2022/03/23 07:50:52;;;;;;;;;;;9.70;99.90;;;;;;5118415;28;20259;-89
2022/03/23 07:53:19;;;;;;;;;;;8.80;99.90;;;;;;5117009;28;19943;-89
2022/03/23 07:55:57;;;;;;;;;;;9.20;99.90;;;;;;5115609;28;20027;-87
2022/03/23 07:58:27;;;;;;;;;;;10.00;99.90;;;;;;5115291;28;19924;-89
2022/03/23 08:00:58;;;;;;;;;;;8.40;99.90;;;;;;5116141;28;19931;-89
2022/03/23 08:03:25;;;;;;;;;;;10.40;99.90;;;;;;5115257;28;19928;-87
2022/03/23 08:05:52;;;;;;;;;;;10.20;99.90;;;;;;5116530;28;19973;-89
2022/03/23 08:08:18;;;;;;;;;;;9.70;99.90;;;;;;5117126;28;19928;-88
2022/03/23 08:10:45;;;;;;;;;;;9.90;99.90;;;;;;5118362;28;19970;-89
2022/03/23 08:13:13;;;;;;;;;;;10.40;99.90;;;;;;5120669;28;20277;-89
2022/03/23 08:15:42;;;;;;;;;;;9.90;99.90;;;;;;5115814;28;19924;-87
2022/03/23 08:18:10;;;;;;;;;;;10.30;99.90;;;;;;5120200;28;19912;-90
2022/03/23 08:20:37;;;;;;;;;;;10.30;99.90;;;;;;5115936;28;19928;-88
2022/03/23 08:23:05;;;;;;;;;;;10.60;99.90;;;;;;5123898;28;19992;-88
2022/03/23 08:25:37;;;;;;;;;;;10.40;99.90;;;;;;5095615;28;20370;-89
2022/03/23 08:28:07;;;;;;;;;;;9.80;99.90;;;;;;5094680;28;19924;-89
2022/03/23 08:30:34;;;;;;;;;;;10.80;99.90;;;;;;5096714;28;19924;-89
2022/03/23 08:33:04;;;;;;;;;;;10.30;99.90;;;;;;5095941;28;19924;-90
2022/03/23 08:35:32;;;;;;;;;;;11.00;99.90;;;;;;5097085;28;19931;-91
2022/03/23 08:37:59;;;;;;;;;;;11.00;99.90;;;;;;5095830;28;19972;-89
2022/03/23 08:40:31;;;;;;;;;;;10.50;99.90;;;;;;5096960;28;19928;-88
2022/03/23 08:43:00;;;;;;;;;;;10.60;99.90;;;;;;5096652;28;19924;-85
2022/03/23 08:45:27;;;;;;;;;;;11.60;99.90;;;;;;5094563;28;19970;-85
2022/03/23 08:47:59;;;;;;;;;;;11.10;99.90;;;;;;5099660;28;19932;-87
2022/03/23 08:50:30;;;;;;;;;;;12.40;99.90;;;;;;5097977;28;19924;-89
2022/03/23 08:53:07;;;;;;;;;;;11.90;99.90;;;;;;5091905;28;19920;-90
2022/03/23 08:55:36;;;;;;;;;;;12.20;99.90;;;;;;5069880;28;19936;-85
2022/03/23 08:58:03;;;;;;;;;;;12.70;99.90;;;;;;5077651;28;20026;-88
2022/03/23 09:00:30;;;;;;;;;;;12.00;99.90;;;;;;5111560;28;19934;-87
2022/03/23 09:02:58;;;;;;;;;;;12.60;99.90;;;;;;5114418;28;20339;-86
2022/03/23 09:05:27;;;;;;;;;;;12.80;99.90;;;;;;5120209;28;19946;-87
2022/03/23 09:07:54;;;;;;;;;;;12.60;99.90;;;;;;5119336;28;19924;-87
2022/03/23 09:10:26;;;;;;;;;;;10.90;99.90;;;;;;5115614;28;20025;-86
2022/03/23 09:12:53;;;;;;;;;;;12.90;99.90;;;;;;5120983;27;19934;-88
2022/03/23 09:15:19;;;;;;;;;;;13.20;99.90;;;;;;5114018;27;19924;-90
2022/03/23 09:17:47;;;;;;;;;;;12.70;99.90;;;;;;5109461;28;19931;-87
2022/03/23 09:20:14;;;;;;;;;;;13.30;99.90;;;;;;5116639;28;19931;-87
2022/03/23 09:22:46;;;;;;;;;;;13.10;99.90;;;;;;5108040;28;19924;-87
2022/03/23 09:25:14;;;;;;;;;;;13.50;99.90;;;;;;5113129;28;19934;-87
2022/03/23 09:27:47;;;;;;;;;;;13.60;99.90;;;;;;5118606;28;19923;-88
2022/03/23 09:30:17;;;;;;;;;;;13.80;99.90;;;;;;5111073;28;19946;-88
2022/03/23 09:32:46;;;;;;;;;;;14.60;99.90;;;;;;5117330;28;19987;-87
2022/03/23 09:35:13;;;;;;;;;;;14.30;99.90;;;;;;5114970;27;20506;-86
2022/03/23 09:37:50;;;;;;;;;;;14.60;99.90;;;;;;5113637;28;19927;-87
2022/03/23 09:40:18;;;;;;;;;;;14.60;99.90;;;;;;5116330;28;19924;-89
2022/03/23 09:42:47;;;;;;;;;;;14.90;99.90;;;;;;5116886;28;19924;-87
2022/03/23 09:45:21;;;;;;;;;;;13.60;99.90;;;;;;5118166;28;19936;-88
2022/03/23 09:47:48;;;;;;;;;;;14.70;99.90;;;;;;5107151;28;19970;-87
2022/03/23 09:50:15;;;;;;;;;;;15.70;99.90;;;;;;5115832;28;20286;-90
2022/03/23 09:52:44;;;;;;;;;;;15.00;99.90;;;;;;5116721;28;19924;-87
2022/03/23 09:55:14;;;;;;;;;;;15.10;99.90;;;;;;5117410;28;19976;-88
2022/03/23 09:57:40;;;;;;;;;;;15.60;99.90;;;;;;5115362;28;19928;-86
2022/03/23 10:00:10;;;;;;;;;;;15.60;99.90;;;;;;5115835;28;20366;-87
2022/03/23 10:03:18;;;;;;;;;;;15.70;99.40;;;;;;5096267;27;19963;-87
2022/03/23 10:06:04;;;;;;;;;;;16.50;98.60;;;;;;5108609;28;19931;-88
2022/03/23 10:08:53;;;;;;;;;;;15.90;98.20;;;;;;5115712;28;19924;-88
2022/03/23 10:11:43;;;;;;;;;;;16.30;98.00;;;;;;5113954;28;19955;-88
2022/03/23 10:14:29;;;;;;;;;;;16.00;97.60;;;;;;5098676;28;19927;-88
2022/03/23 10:17:17;;;;;;;;;;;17.30;97.40;;;;;;5109809;28;19992;-89
2022/03/23 10:19:49;;;;;;;;;;;18.60;97.30;;;;;;5086536;28;20287;-88
2022/03/23 10:22:16;;;;;;;;;;;16.80;97.70;;;;;;5104156;27;19924;-88
2022/03/23 10:24:43;;;;;;;;;;;16.40;96.50;;;;;;5115622;27;19924;-88
2022/03/23 10:27:12;;;;;;;;;;;14.70;96.40;;;;;;5115589;28;19935;-88
2022/03/23 10:29:44;;;;;;;;;;;16.40;96.90;;;;;;5093440;28;19924;-87
2022/03/23 10:32:14;;;;;;;;;;;14.70;97.80;;;;;;5114639;27;20442;-87
2022/03/23 10:34:57;;;;;;;;;;;16.50;99.90;;;;;;5122480;27;19997;-87
2022/03/23 10:37:26;;;;;;;;;;;16.40;98.80;;;;;;5115334;28;19933;-88
2022/03/23 10:39:55;;;;;;;;;;;16.00;99.30;;;;;;5071894;27;19977;-88
2022/03/23 10:42:26;;;;;;;;;;;16.20;98.80;;;;;;5114549;28;19993;-89
2022/03/23 10:45:03;;;;;;;;;;;16.10;99.00;;;;;;5109868;28;19924;-88
2022/03/23 10:47:32;;;;;;;;;;;16.90;99.90;;;;;;5107683;28;19958;-87
2022/03/23 10:50:08;;;;;;;;;;;16.10;99.00;;;;;;5112147;28;19924;-88
2022/03/23 10:52:43;;;;;;;;;;;19.30;99.90;;;;;;5083793;28;19920;-88
2022/03/23 10:55:10;;;;;;;;;;;17.30;99.90;;;;;;5096749;28;19923;-89
2022/03/23 10:57:49;;;;;;;;;;;16.20;99.90;;;;;;5125510;28;19979;-88
2022/03/23 11:00:17;;;;;;;;;;;16.10;99.90;;;;;;5126153;28;19923;-89
2022/03/23 11:02:47;;;;;;;;;;;13.70;99.90;;;;;;5124485;28;19924;-87
2022/03/23 11:05:29;;;;;;;;;;;18.40;99.90;;;;;;5116682;28;20366;-87
2022/03/23 11:08:05;;;;;;;;;;;16.20;99.90;;;;;;5115247;28;19930;-89
2022/03/23 11:16:10;;;;;;;;;;;16.40;99.90;;;;;;5106255;27;19931;-89
2022/03/23 11:21:19;;;;;;;;;;;16.50;99.00;;;;;;5115798;27;19931;-84
2022/03/23 11:23:46;;;;;;;;;;;16.60;99.10;;;;;;5111438;28;19927;-88
2022/03/23 11:26:14;;;;;;;;;;;16.50;99.90;;;;;;5102650;28;19928;-89
2022/03/23 11:28:42;;;;;;;;;;;18.10;99.90;;;;;;5091093;28;20003;-89
2022/03/23 11:31:10;;;;;;;;;;;17.10;98.40;;;;;;5107001;28;19987;-89
2022/03/23 11:33:38;;;;;;;;;;;17.10;99.30;;;;;;5109834;28;20721;-87
2022/03/23 11:36:09;;;;;;;;;;;17.30;99.10;;;;;;5114067;28;20011;-88
2022/03/23 11:38:38;;;;;;;;;;;16.70;99.50;;;;;;5110389;28;19924;-89
2022/03/23 11:41:06;;;;;;;;;;;18.10;98.40;;;;;;5114525;28;20681;-86
2022/03/23 11:43:37;;;;;;;;;;;16.70;98.50;;;;;;5114929;28;19923;-83
2022/03/23 11:46:07;;;;;;;;;;;16.80;99.10;;;;;;5109184;28;19931;-87
2022/03/23 11:48:52;;;;;;;;;;;16.50;98.60;;;;;;5114361;28;19968;-87
2022/03/23 11:51:32;;;;;;;;;;;16.80;96.60;;;;;;5114359;28;19978;-87
2022/03/23 11:54:03;;;;;;;;;;;16.90;96.70;;;;;;5111186;28;19924;-88
2022/03/23 11:56:37;;;;;;;;;;;16.90;96.70;;;;;;5094023;28;19977;-88
2022/03/23 11:59:21;;;;;;;;;;;17.30;96.80;;;;;;5094238;28;19931;-88
2022/03/23 12:01:48;;;;;;;;;;;16.40;96.60;;;;;;5113498;28;19944;-88
2022/03/23 12:04:21;;;;;;;;;;;17.00;97.70;;;;;;5114743;28;19923;-88
2022/03/23 12:06:58;;;;;;;;;;;17.60;95.70;;;;;;5113667;28;21600;-89
2022/03/23 12:09:40;;;;;;;;;;;17.90;96.20;;;;;;5115215;28;20450;-88
2022/03/23 12:12:24;;;;;;;;;;;17.60;94.90;;;;;;5107312;28;20022;-88
2022/03/23 12:15:18;;;;;;;;;;;15.20;94.50;;;;;;5114499;28;19947;-88
2022/03/23 12:18:06;;;;;;;;;;;17.50;93.60;;;;;;5092665;28;19970;-87
2022/03/23 12:21:08;;;;;;;;;;;18.00;93.40;;;;;;5103815;28;19924;-87
2022/03/23 12:23:44;;;;;;;;;;;18.10;93.50;;;;;;5089214;28;20017;-88
2022/03/23 12:26:41;;;;;;;;;;;18.40;93.30;;;;;;5108582;28;20327;-88
2022/03/23 12:32:14;;;;;;;;;;;18.20;85.00;;;;;;5100168;28;19939;-88
2022/03/23 12:34:51;;;;;;;;;;;17.80;90.10;;;;;;5103546;28;19953;-89
2022/03/23 12:37:34;;;;;;;;;;;15.80;85.10;;;;;;5109857;28;19924;-88
2022/03/23 12:40:13;;;;;;;;;;;18.80;90.10;;;;;;5101694;28;19924;-88
2022/03/23 12:42:45;;;;;;;;;;;18.30;85.70;;;;;;5115169;28;19924;-88
2022/03/23 12:45:21;;;;;;;;;;;19.00;84.70;;;;;;5114239;28;19927;-89
2022/03/23 12:57:49;;;;;;;;;;;18.50;83.80;;;;;;5112221;28;19927;-88
2022/03/23 12:59:39;;;;;;;;;;;19.00;81.50;;;;;;5093562;28;19931;-88
2022/03/23 13:02:21;;;;;;;;;;;19.20;77.60;;;;;;5107480;28;20024;-88
2022/03/23 13:05:00;;;;;;;;;;;18.50;75.70;;;;;;5111549;28;20401;-88
2022/03/23 13:07:44;;;;;;;;;;;18.50;75.60;;;;;;5113262;28;19930;-89
2022/03/23 13:13:10;;;;;;;;;;;18.80;76.00;;;;;;5101868;28;19936;-88
2022/03/23 13:15:44;;;;;;;;;;;16.80;75.90;;;;;;5107868;28;19927;-88
2022/03/23 13:18:21;;;;;;;;;;;18.80;78.00;;;;;;5101883;28;19931;-90
2022/03/23 13:21:13;;;;;;;;;;;17.90;78.20;;;;;;5110281;28;19928;-89
2022/03/23 13:26:57;;;;;;;;;;;19.40;75.60;;;;;;5112953;28;20010;-89
2022/03/23 13:29:37;;;;;;;;;;;18.70;75.70;;;;;;5099247;28;19924;-89
2022/03/23 13:32:10;;;;;;;;;;;16.90;75.10;;;;;;5107325;28;20012;-89
2022/03/23 13:34:39;;;;;;;;;;;19.50;75.70;;;;;;5101717;28;19931;-89
2022/03/23 13:37:40;;;;;;;;;;;19.20;76.90;;;;;;5095151;28;19931;-90
2022/03/23 13:40:12;;;;;;;;;;;20.70;75.20;;;;;;5103824;28;19930;-88
2022/03/23 13:45:58;;;;;;;;;;;19.40;73.40;;;;;;5096142;28;20273;-89
2022/03/23 13:48:30;;;;;;;;;;;19.10;72.70;;;;;;5112417;28;20385;-88
2022/03/23 13:51:01;;;;;;;;;;;19.80;73.70;;;;;;5115584;28;19924;-89
2022/03/23 13:55:56;;;;;;;;;;;19.20;71.90;;;;;;5122761;22;19996;-89
2022/03/23 13:58:24;;;;;;;;;;;19.80;77.50;;;;;;5117875;28;20379;-86
2022/03/23 14:03:57;;;;;;;;;;;18.30;70.40;;;;;;5102707;28;19959;-89
2022/03/23 14:06:27;;;;;;;;;;;18.90;70.30;;;;;;5118722;28;19924;-89
2022/03/23 14:09:12;;;;;;;;;;;18.80;78.50;;;;;;5113686;28;19995;-87
2022/03/23 14:12:03;;;;;;;;;;;20.80;72.40;;;;;;5117282;27;20029;-88
2022/03/23 14:14:31;;;;;;;;;;;19.20;73.90;;;;;;5114001;28;20521;-89
2022/03/23 14:17:06;;;;;;;;;;;19.30;75.30;;;;;;5116823;27;19946;-88
2022/03/23 14:19:46;;;;;;;;;;;19.20;68.00;;;;;;5101731;28;19924;-88
2022/03/23 14:22:16;;;;;;;;;;;21.90;70.50;;;;;;5059545;28;20335;-88
2022/03/23 14:24:43;;;;;;;;;;;19.40;70.00;;;;;;5062874;28;19923;-88
2022/03/23 14:27:18;;;;;;;;;;;19.90;72.10;;;;;;5101972;28;19938;-89
2022/03/23 14:30:04;;;;;;;;;;;19.40;66.70;;;;;;5108170;28;19935;-88
2022/03/23 14:32:34;;;;;;;;;;;20.40;68.80;;;;;;5102179;28;19924;-88
2022/03/23 14:35:14;;;;;;;;;;;19.60;72.80;;;;;;5117253;28;19924;-89
2022/03/23 14:37:55;;;;;;;;;;;19.00;68.80;;;;;;5105589;28;19971;-90
2022/03/23 14:40:26;;;;;;;;;;;19.20;74.50;;;;;;5108301;27;19935;-88
2022/03/23 14:43:01;;;;;;;;;;;19.10;68.50;;;;;;5067146;27;19923;-88
2022/03/23 14:45:47;;;;;;;;;;;19.30;70.20;;;;;;5116046;28;20007;-88
2022/03/23 14:48:36;;;;;;;;;;;17.80;67.30;;;;;;5115552;28;20015;-89
2022/03/23 14:51:31;;;;;;;;;;;19.70;68.50;;;;;;5097464;28;20008;-88
2022/03/23 14:53:59;;;;;;;;;;;19.90;68.80;;;;;;5071400;28;20263;-88
2022/03/23 14:56:30;;;;;;;;;;;17.60;64.00;;;;;;5115066;28;20320;-88
2022/03/23 14:58:59;;;;;;;;;;;19.30;69.80;;;;;;5101009;28;19946;-89
2022/03/23 15:01:28;;;;;;;;;;;19.30;69.40;;;;;;5100508;28;19930;-89
2022/03/23 15:04:18;;;;;;;;;;;19.30;70.00;;;;;;5102820;28;19927;-87
2022/03/23 15:15:56;;;;;;;;;;;17.10;63.80;;;;;;5060494;28;19925;-87
2022/03/23 15:21:19;;;;;;;;;;;17.60;64.20;;;;;;5085110;28;19935;-89
2022/03/23 15:23:50;;;;;;;;;;;19.30;70.60;;;;;;5133825;22;19928;-89
2022/03/23 15:26:23;;;;;;;;;;;18.90;69.90;;;;;;5109809;28;19932;-89
2022/03/23 15:29:22;;;;;;;;;;;19.40;71.10;;;;;;5107258;28;20388;-89
2022/03/23 15:31:52;;;;;;;;;;;19.00;66.90;;;;;;5101195;28;19925;-89
2022/03/23 15:34:21;;;;;;;;;;;19.40;71.60;;;;;;5106241;28;20293;-88
2022/03/23 15:36:49;;;;;;;;;;;19.10;69.60;;;;;;5117186;28;19966;-89
2022/03/23 15:42:07;;;;;;;;;;;19.00;66.50;;;;;;5110931;28;20214;-89
2022/03/23 15:44:38;;;;;;;;;;;21.20;68.90;;;;;;5101279;27;19977;-88
2022/03/23 15:47:08;;;;;;;;;;;19.90;68.20;;;;;;5102445;28;19936;-86